Time;durP1;ratioP1;P1;durP2;ratioP2;P2;SDS_P1;SDS_P2;PMS_P1;PMS_P2;Temp;Humidity;BMP_temperature;BMP_pressure;BME280_temperature;BME280_humidity;BME280_pressure;Samples;Min_cycle;Max_cycle;Signal;HPM_P1;HPM_P2
2022/08/12 00:45:01;;;;;;;7.40;6.60;;;;;;;21.60;83.40;100570.34;1722217;82;20992;-64
2022/08/12 00:47:32;;;;;;;7.92;6.65;;;;;;;21.60;83.37;100562.52;1722719;83;21424;-64
2022/08/12 00:50:02;;;;;;;9.15;6.70;;;;;;;21.58;83.48;100559.16;1722249;83;21448;-64
2022/08/12 00:52:33;;;;;;;10.05;6.90;;;;;;;21.59;83.53;100568.66;1722303;82;21055;-65
2022/08/12 00:55:04;;;;;;;9.15;6.92;;;;;;;21.60;83.46;100569.50;1722549;83;21056;-64
2022/08/12 00:57:35;;;;;;;9.25;6.87;;;;;;;21.61;83.38;100572.58;1722225;82;21000;-64
2022/08/12 01:00:08;;;;;;;8.35;6.67;;;;;;;21.62;83.25;100577.05;1722290;82;21043;-64
2022/08/12 01:02:40;;;;;;;8.65;7.03;;;;;;;21.62;83.06;100570.07;1684800;85;20999;-65
2022/08/12 01:13:47;;;;;;;8.80;6.67;;;;;;;21.55;83.21;100578.66;1723155;81;21055;-64
2022/08/12 01:16:23;;;;;;;13.48;6.60;;;;;;;21.56;83.18;100581.73;1723390;83;21027;-64
2022/08/12 01:18:52;;;;;;;7.78;6.55;;;;;;;21.57;83.07;100585.37;1685822;85;21103;-65
2022/08/12 01:22:05;;;;;;;7.42;6.72;;;;;;;21.57;83.01;100582.02;1717886;83;21047;-64
2022/08/12 01:25:09;;;;;;;8.83;6.67;;;;;;;21.53;83.06;100587.01;1723974;82;21052;-64
2022/08/12 01:27:39;;;;;;;8.00;6.40;;;;;;;21.49;83.13;100602.03;1723398;83;21035;-64
2022/08/12 01:30:10;;;;;;;9.23;6.35;;;;;;;21.48;83.13;100610.11;1723284;82;21035;-64
2022/08/12 01:32:41;;;;;;;10.45;6.60;;;;;;;21.50;83.15;100605.11;1723369;83;21486;-64
2022/08/12 01:35:13;;;;;;;11.20;7.17;;;;;;;21.53;83.04;100599.55;1723357;83;21043;-64
2022/08/12 01:37:57;;;;;;;7.55;6.33;;;;;;;21.53;83.00;100584.22;1723407;82;21047;-64
2022/08/12 01:40:33;;;;;;;11.15;6.70;;;;;;;21.53;82.91;100582.27;1723366;83;21424;-63
2022/08/12 01:43:09;;;;;;;7.60;6.22;;;;;;;21.51;82.78;100587.27;1723206;82;21059;-65
2022/08/12 01:45:59;;;;;;;8.03;6.22;;;;;;;21.50;82.78;100597.58;1723114;82;21024;-63
2022/08/12 01:48:40;;;;;;;11.48;6.95;;;;;;;21.54;82.75;100597.89;1679406;83;21011;-65
2022/08/12 01:51:17;;;;;;;7.33;6.47;;;;;;;21.54;82.65;100587.30;1723535;83;21036;-65
2022/08/12 01:54:04;;;;;;;7.78;6.40;;;;;;;21.55;82.63;100587.03;1725575;82;21448;-64
2022/08/12 01:57:05;;;;;;;7.70;6.50;;;;;;;21.54;82.72;100585.34;1723487;82;21008;-64
2022/08/12 01:59:57;;;;;;;10.75;7.12;;;;;;;21.52;82.89;100586.16;1684559;85;21444;-64
2022/08/12 02:02:33;;;;;;;7.92;6.67;;;;;;;21.53;82.91;100582.83;1717841;83;21031;-64
2022/08/12 02:11:58;;;;;;;11.55;6.58;;;;;;;21.46;82.94;100584.44;1723713;83;21067;-65
2022/08/12 02:14:58;;;;;;;7.95;6.70;;;;;;;21.40;83.14;100577.95;1717996;83;21019;-64
2022/08/12 02:18:08;;;;;;;9.13;6.80;;;;;;;21.37;83.32;100584.60;1678037;82;21530;-64
2022/08/12 02:21:06;;;;;;;10.63;6.50;;;;;;;21.32;83.56;100573.41;1722421;82;21473;-63
2022/08/12 02:23:35;;;;;;;8.05;6.28;;;;;;;21.30;83.63;100580.64;1722110;83;21436;-64
2022/08/12 02:26:07;;;;;;;8.75;6.62;;;;;;;21.31;83.63;100585.11;1722293;82;21031;-64
2022/08/12 02:28:37;;;;;;;9.78;6.97;;;;;;;21.33;83.58;100584.84;1723508;82;21307;-64
2022/08/12 02:31:07;;;;;;;8.28;6.75;;;;;;;21.30;83.49;100580.64;1699799;84;21043;-65
2022/08/12 02:33:37;;;;;;;7.97;7.10;;;;;;;21.24;83.65;100580.30;1715602;83;21111;-65
2022/08/12 02:36:07;;;;;;;9.63;6.70;;;;;;;21.21;83.81;100579.41;1715661;82;21094;-65
2022/08/12 02:38:37;;;;;;;9.80;6.78;;;;;;;21.18;83.85;100572.41;1715542;83;21099;-64
2022/08/12 02:41:09;;;;;;;10.70;6.90;;;;;;;21.18;83.93;100572.41;1733180;82;21024;-64
2022/08/12 02:43:43;;;;;;;10.10;7.58;;;;;;;21.15;84.01;100571.55;1715621;82;21103;-65
2022/08/12 02:46:15;;;;;;;10.78;7.33;;;;;;;21.12;84.17;100570.68;1746813;82;21070;-63
2022/08/12 02:49:00;;;;;;;10.35;7.10;;;;;;;21.12;84.26;100573.47;1738082;82;21083;-65
2022/08/12 02:51:33;;;;;;;12.75;7.28;;;;;;;21.12;84.22;100574.02;1722651;82;21020;-65
2022/08/12 02:54:04;;;;;;;9.45;6.60;;;;;;;21.12;84.21;100569.28;1742637;82;21038;-63
2022/08/12 02:56:41;;;;;;;6.80;6.20;;;;;;;21.11;84.20;100568.16;1738261;82;21058;-64
2022/08/12 02:59:16;;;;;;;;;;;;;;;21.09;84.27;100570.37;1701840;83;21040;-64
2022/08/12 03:01:52;;;;;;;9.08;6.83;;;;;;;21.09;84.37;100572.59;1717408;82;20176;-64
2022/08/12 03:04:46;;;;;;;8.00;6.75;;;;;;;21.08;84.37;100568.68;1716301;83;21075;-65
2022/08/12 03:07:21;;;;;;;8.40;7.40;;;;;;;21.06;84.42;100568.95;1715510;82;21068;-64
2022/08/12 03:10:08;;;;;;;9.15;6.67;;;;;;;21.09;84.39;100575.94;1721756;82;21055;-63
2022/08/12 03:12:43;;;;;;;7.92;6.90;;;;;;;21.08;84.38;100565.34;1729345;82;21079;-64
2022/08/12 03:15:16;;;;;;;10.98;7.30;;;;;;;21.08;84.36;100561.16;1751847;81;21098;-64
2022/08/12 03:18:13;;;;;;;10.13;6.78;;;;;;;21.07;84.45;100565.61;1699650;83;21187;-65
2022/08/12 03:20:45;;;;;;;10.28;6.97;;;;;;;21.06;84.46;100557.80;1703553;83;22058;-64
2022/08/12 03:23:15;;;;;;;8.55;6.37;;;;;;;21.06;84.42;100556.41;1703893;83;21068;-64
2022/08/12 03:25:47;;;;;;;7.55;6.30;;;;;;;21.05;84.24;100561.69;1702121;82;21087;-64
2022/08/12 03:28:49;;;;;;;9.93;6.42;;;;;;;21.04;84.32;100561.95;1703517;83;21053;-64
2022/08/12 03:30:50;;;;;;;9.53;6.87;;;;;;;21.04;84.33;100553.59;1679531;85;21036;-64
2022/08/12 03:33:22;;;;;;;7.35;6.55;;;;;;;21.04;84.38;100559.17;1683474;84;21037;-64
2022/08/12 03:35:51;;;;;;;9.55;7.25;;;;;;;21.02;84.22;100565.00;1677824;85;21061;-64
2022/08/12 03:38:20;;;;;;;11.18;7.05;;;;;;;21.00;84.24;100566.37;1648885;86;21052;-65
2022/08/12 04:01:57;;;;;;;12.20;6.85;;;;;;;20.97;84.55;100580.27;1763531;81;20979;-64
2022/08/12 04:04:32;;;;;;;12.33;7.50;;;;;;;20.99;84.38;100581.41;1744680;81;21055;-64
2022/08/12 04:07:07;;;;;;;7.53;6.70;;;;;;;20.99;84.35;100581.41;1710410;83;21024;-65
2022/08/12 04:09:39;;;;;;;8.85;7.30;;;;;;;20.99;84.32;100583.64;1706047;83;21092;-65
2022/08/12 04:14:59;;;;;;;8.15;6.78;;;;;;;21.00;84.21;100592.28;1706057;82;21036;-65
2022/08/12 04:17:30;;;;;;;10.50;7.05;;;;;;;21.00;84.19;100583.92;1715774;82;21047;-64
2022/08/12 04:20:00;;;;;;;9.80;7.17;;;;;;;21.02;84.16;100581.72;1715486;83;21020;-64
2022/08/12 04:22:30;;;;;;;9.55;7.17;;;;;;;21.04;84.14;100582.30;1715228;84;21091;-65
2022/08/12 04:25:00;;;;;;;8.05;7.25;;;;;;;21.03;84.06;100581.16;1715549;82;21032;-64
2022/08/12 04:27:31;;;;;;;8.55;7.12;;;;;;;21.03;84.06;100577.83;1746605;82;20992;-65
2022/08/12 04:30:01;;;;;;;10.90;6.53;;;;;;;21.04;83.98;100580.91;1686496;85;21058;-64
2022/08/12 04:32:37;;;;;;;10.55;6.78;;;;;;;21.06;83.97;100582.87;1686386;85;21063;-63
2022/08/12 04:35:09;;;;;;;11.95;9.08;;;;;;;21.08;83.83;100575.09;1688305;85;21103;-66
2022/08/12 04:37:38;;;;;;;11.05;7.83;;;;;;;21.08;83.70;100568.68;1683729;85;21031;-65
2022/08/12 04:40:12;;;;;;;11.85;8.13;;;;;;;21.08;83.84;100571.47;1667008;86;21504;-63
2022/08/12 04:42:41;;;;;;;11.10;7.10;;;;;;;21.08;83.78;100580.67;1686465;85;20998;-65
2022/08/12 04:45:11;;;;;;;12.75;7.45;;;;;;;21.11;83.61;100580.14;1689037;84;21510;-65
2022/08/12 04:47:46;;;;;;;10.30;7.80;;;;;;;21.10;83.48;100588.77;1657251;86;21522;-64
2022/08/12 04:50:17;;;;;;;10.28;7.53;;;;;;;21.12;83.62;100584.61;1689300;84;21414;-65
2022/08/12 04:52:50;;;;;;;10.40;7.72;;;;;;;21.17;83.50;100587.45;1656667;86;21107;-65
2022/08/12 04:55:21;;;;;;;9.63;7.80;;;;;;;21.19;83.07;100593.60;1689160;85;21026;-64
2022/08/12 04:57:50;;;;;;;11.03;7.85;;;;;;;21.21;82.96;100591.95;1657381;86;21727;-64
2022/08/12 05:00:19;;;;;;;9.30;7.45;;;;;;;21.27;82.83;100587.30;1688957;85;21070;-64
2022/08/12 05:02:49;;;;;;;9.90;7.28;;;;;;;21.33;82.72;100579.27;1657205;86;21080;-64
2022/08/12 05:05:19;;;;;;;9.83;8.10;;;;;;;21.40;82.33;100579.34;1689377;85;21069;-65
2022/08/12 05:07:50;;;;;;;15.18;7.42;;;;;;;21.47;82.09;100571.63;1657437;86;21079;-65
2022/08/12 05:10:22;;;;;;;9.48;8.10;;;;;;;21.54;81.67;100569.17;1688951;85;21552;-64
2022/08/12 05:12:57;;;;;;;10.40;7.42;;;;;;;21.59;81.24;100564.48;1657396;86;21079;-65
2022/08/12 05:15:27;;;;;;;12.30;7.50;;;;;;;21.66;81.01;100573.45;1681296;85;21067;-65
2022/08/12 05:17:58;;;;;;;10.60;7.95;;;;;;;21.72;80.51;100570.16;1651193;86;21095;-65
2022/08/12 05:20:29;;;;;;;10.53;8.20;;;;;;;21.79;80.32;100574.39;1716825;83;21057;-65
2022/08/12 05:23:11;;;;;;;10.10;8.38;;;;;;;21.85;79.91;100561.32;1680143;85;21023;-64
2022/08/12 05:25:43;;;;;;;10.10;7.67;;;;;;;21.89;79.31;100561.07;1680134;85;21054;-64
2022/08/12 05:28:14;;;;;;;12.28;7.60;;;;;;;21.94;78.89;100554.12;1650919;87;21052;-64
2022/08/12 05:30:45;;;;;;;12.35;7.65;;;;;;;21.96;78.65;100563.63;1716842;83;21002;-64
2022/08/12 05:33:14;;;;;;;12.03;7.90;;;;;;;21.99;78.45;100574.25;1679633;84;21040;-64
2022/08/12 05:35:44;;;;;;;12.55;8.03;;;;;;;22.03;78.38;100576.26;1679769;84;21455;-64
2022/08/12 05:41:17;;;;;;;10.48;7.95;;;;;;;22.13;77.75;100561.00;1716369;83;21463;-65
2022/08/12 05:43:40;;;;;;;12.95;7.70;;;;;;;22.19;77.56;100568.86;1679378;84;21027;-64
2022/08/12 05:46:09;;;;;;;12.25;8.28;;;;;;;22.26;77.31;100557.44;1679918;85;20999;-64
2022/08/12 05:48:42;;;;;;;9.35;8.30;;;;;;;22.30;77.05;100561.38;1650903;87;21095;-66
2022/08/12 05:51:11;;;;;;;12.20;8.55;;;;;;;22.32;76.82;100561.38;1716523;83;21018;-66
2022/08/12 05:53:40;;;;;;;10.15;7.67;;;;;;;22.36;76.63;100565.31;1716448;83;21053;-67
2022/08/12 05:56:25;;;;;;;12.10;8.45;;;;;;;22.38;76.56;100555.27;1679909;84;21078;-65
2022/08/12 05:58:56;;;;;;;9.88;8.00;;;;;;;22.44;76.25;100555.02;1642994;85;21479;-65
2022/08/12 06:01:26;;;;;;;10.63;8.28;;;;;;;22.50;75.71;100569.00;1650710;87;21044;-65
2022/08/12 06:03:59;;;;;;;13.22;8.38;;;;;;;22.50;75.73;100572.64;1737921;81;21074;-65
2022/08/12 06:06:34;;;;;;;11.15;8.13;;;;;;;22.52;75.82;100573.77;1773084;80;21050;-65
2022/08/12 06:09:01;;;;;;;11.20;8.25;;;;;;;22.60;75.79;100574.08;1782950;80;21049;-66
2022/08/12 06:11:40;;;;;;;11.60;8.10;;;;;;;22.67;75.57;100573.82;1769361;80;21042;-65
2022/08/12 06:14:10;;;;;;;9.13;8.00;;;;;;;22.75;75.38;100583.07;1774938;79;21506;-64
2022/08/12 06:16:42;;;;;;;11.63;8.18;;;;;;;22.78;74.60;100573.61;1766089;81;21388;-66
2022/08/12 06:19:12;;;;;;;13.25;8.45;;;;;;;22.81;74.45;100585.39;1766066;81;21420;-66
2022/08/12 06:21:42;;;;;;;11.95;8.90;;;;;;;22.87;74.59;100592.67;1739709;81;21297;-66
2022/08/12 06:24:12;;;;;;;12.03;7.92;;;;;;;22.92;74.46;100587.94;1766120;81;21412;-64
2022/08/12 06:26:43;;;;;;;12.37;8.50;;;;;;;23.00;74.18;100592.16;1766010;81;21002;-65
2022/08/12 06:29:18;;;;;;;12.25;7.80;;;;;;;23.06;74.12;100605.02;1766063;81;21046;-64
2022/08/12 06:31:49;;;;;;;14.90;8.90;;;;;;;23.08;73.65;100563.66;1767683;80;21000;-65
2022/08/12 06:34:18;;;;;;;12.18;10.65;;;;;;;23.11;73.63;100567.86;1765974;80;21481;-66
2022/08/12 06:36:49;;;;;;;18.00;9.73;;;;;;;23.16;73.66;100583.24;1761895;81;21034;-65
2022/08/12 06:39:19;;;;;;;10.98;8.20;;;;;;;23.21;73.65;100567.88;1766027;81;21063;-65
2022/08/12 06:44:40;;;;;;;10.60;8.83;;;;;;;23.31;72.74;100576.28;1756524;81;21096;-65
2022/08/12 06:47:10;;;;;;;10.08;8.93;;;;;;;23.37;72.50;100572.37;1765988;81;21050;-66
2022/08/12 06:49:40;;;;;;;9.53;8.63;;;;;;;23.43;72.34;100574.08;1766075;81;21461;-65
2022/08/12 06:52:10;;;;;;;11.97;8.80;;;;;;;23.48;72.19;100574.08;1766017;81;21052;-66
2022/08/12 06:54:44;;;;;;;12.60;8.78;;;;;;;23.55;71.96;100585.02;1765975;81;20963;-65
2022/08/12 06:57:11;;;;;;;10.90;8.05;;;;;;;23.62;71.56;100569.64;1765910;81;20987;-66
2022/08/12 06:59:43;;;;;;;10.48;8.50;;;;;;;23.73;71.31;100581.66;1764056;81;21051;-66
2022/08/12 07:02:13;;;;;;;13.30;9.45;;;;;;;23.81;71.13;100580.26;1766020;81;20991;-65
2022/08/12 07:04:42;;;;;;;12.43;9.08;;;;;;;23.86;70.59;100578.30;1765701;81;21014;-65
2022/08/12 07:07:11;;;;;;;11.53;8.78;;;;;;;23.88;70.64;100569.62;1765935;81;21491;-66
2022/08/12 07:09:41;;;;;;;12.85;8.73;;;;;;;23.90;70.49;100583.61;1766131;81;21031;-64
2022/08/12 07:12:18;;;;;;;13.55;8.53;;;;;;;23.92;70.20;100575.77;1763324;81;20999;-66
2022/08/12 07:14:43;;;;;;;18.40;8.83;;;;;;;23.94;69.78;100572.13;1765838;79;20988;-66
2022/08/12 07:17:15;;;;;;;12.95;9.75;;;;;;;23.95;69.62;100575.20;1765956;81;21466;-66
2022/08/12 07:19:45;;;;;;;10.35;8.98;;;;;;;23.94;69.50;100570.73;1766123;81;21047;-66
2022/08/12 07:22:17;;;;;;;13.30;9.83;;;;;;;23.92;69.65;100575.77;1765876;81;21042;-66
2022/08/12 07:25:29;;;;;;;11.28;9.88;;;;;;;23.92;69.71;100566.53;1766051;81;21022;-66
2022/08/12 07:27:17;;;;;;;19.70;10.43;;;;;;;23.91;69.96;100560.09;1764220;81;20979;-66
2022/08/12 07:29:46;;;;;;;12.80;9.28;;;;;;;23.91;69.93;100559.26;1766118;81;20967;-65
2022/08/12 07:32:17;;;;;;;15.40;8.83;;;;;;;23.92;70.13;100567.93;1764188;80;21098;-65
2022/08/12 07:34:46;;;;;;;15.72;9.60;;;;;;;23.93;70.17;100573.81;1765950;81;21035;-65
2022/08/12 07:37:17;;;;;;;12.68;9.88;;;;;;;23.89;69.94;100568.50;1766169;81;21019;-66
2022/08/12 07:39:49;;;;;;;12.03;9.80;;;;;;;23.83;69.83;100562.63;1765979;81;21019;-64
2022/08/12 07:42:20;;;;;;;14.43;9.30;;;;;;;23.80;70.32;100570.19;1764652;80;21039;-65
2022/08/12 07:44:50;;;;;;;13.55;9.90;;;;;;;23.81;70.34;100567.11;1766179;81;21047;-65
2022/08/12 07:47:20;;;;;;;15.15;9.28;;;;;;;23.85;70.22;100561.23;1766227;81;21443;-64
2022/08/12 07:50:44;;;;;;;12.53;9.30;;;;;;;23.95;70.00;100551.97;1759238;80;21031;-66
2022/08/12 07:53:33;;;;;;;13.10;9.65;;;;;;;24.04;69.71;100545.52;1753649;81;21051;-68
2022/08/12 08:00:09;;;;;;;16.82;10.68;;;;;;;24.39;69.20;100538.75;1766101;81;20992;-68
2022/08/12 08:02:39;;;;;;;12.75;8.83;;;;;;;24.78;67.24;100526.27;1766156;81;21475;-69
2022/08/12 08:05:09;;;;;;;15.45;10.20;;;;;;;24.94;66.96;100534.85;1765865;81;21050;-66
2022/08/12 08:07:38;;;;;;;12.47;9.53;;;;;;;25.08;65.92;100535.08;1751827;81;21479;-66
2022/08/12 08:10:09;;;;;;;12.78;9.70;;;;;;;25.15;65.49;100528.57;1766014;81;20995;-68
2022/08/12 08:12:57;;;;;;;12.15;10.08;;;;;;;25.17;65.30;100527.72;1766129;81;21501;-67
2022/08/12 08:15:30;;;;;;;13.00;10.38;;;;;;;25.14;65.29;100524.09;1773605;79;21517;-66
2022/08/12 08:18:09;;;;;;;14.30;10.08;;;;;;;25.15;65.29;100526.61;1739548;82;21362;-67
2022/08/12 08:20:40;;;;;;;13.95;10.03;;;;;;;25.19;65.35;100529.10;1726868;82;21463;-66
2022/08/12 08:23:16;;;;;;;14.03;10.95;;;;;;;25.24;65.24;100535.23;1729090;82;21047;-64
2022/08/12 08:25:45;;;;;;;18.20;10.50;;;;;;;25.26;65.18;100534.38;1736005;81;21067;-64
2022/08/12 08:28:20;;;;;;;13.70;10.45;;;;;;;25.29;64.95;100545.02;1715213;83;21099;-65
2022/08/12 08:30:48;;;;;;;12.53;10.35;;;;;;;25.31;64.92;100540.52;1728290;82;21490;-65
2022/08/12 08:33:19;;;;;;;13.32;10.03;;;;;;;25.36;64.82;100537.67;1723456;82;21043;-66
2022/08/12 08:35:52;;;;;;;14.15;9.85;;;;;;;25.43;64.59;100532.03;1739216;82;21059;-65
2022/08/12 08:38:22;;;;;;;13.32;9.70;;;;;;;25.52;64.38;100537.84;1739359;82;21082;-65
2022/08/12 08:43:43;;;;;;;12.13;8.93;;;;;;;25.77;63.15;100526.98;1744698;81;21039;-66
2022/08/12 08:46:13;;;;;;;13.93;9.58;;;;;;;25.94;62.49;100532.14;1727669;82;21075;-65
2022/08/12 08:48:43;;;;;;;14.70;9.85;;;;;;;26.04;61.73;100534.31;1737300;82;21117;-65
2022/08/12 08:51:12;;;;;;;14.90;10.18;;;;;;;26.09;61.63;100520.21;1735901;82;21047;-65
2022/08/12 08:53:46;;;;;;;11.53;9.13;;;;;;;26.20;61.40;100524.58;1729706;82;21094;-64
2022/08/12 08:56:19;;;;;;;12.68;9.10;;;;;;;26.34;60.69;100526.69;1732696;81;21059;-68
2022/08/12 08:58:48;;;;;;;13.35;9.60;;;;;;;26.45;60.23;100522.05;1742401;82;21114;-65
2022/08/12 09:01:20;;;;;;;9.68;8.75;;;;;;;26.52;59.98;100522.52;1724186;82;21395;-65
2022/08/12 09:03:49;;;;;;;11.93;9.48;;;;;;;26.64;59.85;100532.49;1737269;81;21403;-66
2022/08/12 09:06:22;;;;;;;11.93;9.68;;;;;;;26.75;58.61;100536.30;1724634;82;21063;-66
2022/08/12 09:08:53;;;;;;;11.80;9.15;;;;;;;26.76;58.53;100543.59;1722840;82;21008;-65
2022/08/12 09:14:12;;;;;;;13.05;9.73;;;;;;;26.87;57.36;100554.13;1730729;82;21101;-65
2022/08/12 09:16:44;;;;;;;15.15;10.00;;;;;;;26.79;57.68;100550.02;1749761;81;21045;-65
2022/08/12 09:19:16;;;;;;;12.78;9.98;;;;;;;26.80;57.98;100548.88;1712112;83;21099;-66
2022/08/12 09:21:47;;;;;;;11.12;9.93;;;;;;;26.82;57.94;100555.04;1684272;84;21485;-66
2022/08/12 09:24:19;;;;;;;12.15;9.80;;;;;;;26.82;58.04;100555.04;1701065;83;21025;-64
2022/08/12 09:26:49;;;;;;;14.28;9.95;;;;;;;26.82;58.16;100559.83;1703086;84;21032;-62
2022/08/12 09:29:20;;;;;;;14.45;9.68;;;;;;;26.81;58.24;100561.80;1703562;84;21017;-64
2022/08/12 09:31:51;;;;;;;12.13;9.95;;;;;;;26.85;58.31;100569.90;1703108;84;21080;-66
2022/08/12 09:34:28;;;;;;;14.35;10.48;;;;;;;26.87;58.05;100563.97;1701770;84;21077;-65
2022/08/12 09:36:56;;;;;;;13.25;9.68;;;;;;;26.89;58.44;100566.48;1701780;84;21045;-63
2022/08/12 09:39:26;;;;;;;12.58;9.83;;;;;;;26.95;58.34;100573.70;1702800;84;21438;-65
2022/08/12 09:47:28;;;;;;;14.80;10.20;;;;;;;26.94;58.24;100569.23;1703028;84;21100;-63
2022/08/12 09:49:59;;;;;;;12.00;9.93;;;;;;;26.89;58.67;100571.54;1703469;83;21427;-64
2022/08/12 09:52:29;;;;;;;13.83;10.20;;;;;;;26.87;58.65;100561.73;1692179;83;21099;-65
2022/08/12 09:55:00;;;;;;;12.37;10.90;;;;;;;26.79;58.59;100574.48;1703277;84;21056;-63
2022/08/12 09:57:30;;;;;;;12.82;10.18;;;;;;;26.67;59.11;100570.70;1702980;84;21079;-64
2022/08/12 10:00:03;;;;;;;13.60;10.35;;;;;;;26.59;59.54;100565.72;1702241;84;21139;-65
2022/08/12 10:02:38;;;;;;;13.32;10.05;;;;;;;26.57;59.76;100572.20;1702873;83;21073;-65
2022/08/12 10:05:09;;;;;;;14.73;11.15;;;;;;;26.56;60.20;100581.78;1702961;84;21545;-65
2022/08/12 10:07:41;;;;;;;14.90;11.38;;;;;;;26.52;60.13;100573.68;1702921;84;21104;-67
2022/08/12 10:10:10;;;;;;;16.42;11.25;;;;;;;26.47;60.26;100583.58;1703172;84;21051;-64
2022/08/12 10:15:31;;;;;;;14.98;11.85;;;;;;;26.37;60.86;100585.94;1702961;84;21020;-65
2022/08/12 10:18:02;;;;;;;16.17;11.12;;;;;;;26.29;61.54;100581.51;1718168;82;21023;-65
2022/08/12 10:20:34;;;;;;;18.37;11.35;;;;;;;26.22;61.46;100582.70;1722755;82;21020;-67
2022/08/12 10:23:04;;;;;;;17.77;11.15;;;;;;;26.16;62.81;100595.69;1727317;82;21064;-64
2022/08/12 10:31:17;;;;;;;13.98;11.18;;;;;;;25.93;62.95;100587.47;1718642;82;21071;-64
2022/08/12 10:33:47;;;;;;;15.50;11.95;;;;;;;25.90;62.90;100586.09;1702011;83;21051;-66
2022/08/12 10:36:18;;;;;;;15.93;12.13;;;;;;;25.93;63.08;100593.08;1700440;84;21051;-65
2022/08/12 10:38:49;;;;;;;14.87;10.72;;;;;;;25.97;63.10;100594.73;1746502;82;21522;-66
2022/08/12 10:44:11;;;;;;;18.23;11.63;;;;;;;26.02;62.81;100598.36;1714141;82;21047;-65
2022/08/12 10:46:44;;;;;;;17.10;12.50;;;;;;;26.03;62.55;100593.02;1722150;82;21827;-67
2022/08/12 10:49:18;;;;;;;15.28;11.78;;;;;;;26.04;62.48;100602.27;1724018;82;21444;-67
2022/08/12 10:51:50;;;;;;;15.20;11.45;;;;;;;26.02;62.51;100591.34;1730050;82;21459;-67
2022/08/12 10:54:22;;;;;;;15.80;11.05;;;;;;;26.01;62.53;100588.80;1741419;82;21103;-65
2022/08/12 10:56:54;;;;;;;14.63;11.05;;;;;;;25.98;62.62;100591.62;1739479;81;21035;-67
2022/08/12 10:59:24;;;;;;;14.05;10.65;;;;;;;25.98;62.89;100594.44;1715107;83;21491;-67
2022/08/12 11:01:58;;;;;;;14.13;12.18;;;;;;;26.03;63.09;100597.80;1746470;82;21452;-68
2022/08/12 11:04:30;;;;;;;16.00;10.45;;;;;;;26.09;62.99;100598.84;1709593;83;21078;-67
2022/08/12 11:07:02;;;;;;;14.15;10.50;;;;;;;26.19;62.78;100602.95;1737623;81;21074;-66
2022/08/12 11:09:34;;;;;;;15.95;11.00;;;;;;;26.26;62.35;100586.31;1712728;83;21095;-66
2022/08/12 11:12:05;;;;;;;12.25;10.03;;;;;;;26.26;62.31;100592.77;1746405;82;21490;-68
2022/08/12 11:14:40;;;;;;;15.18;10.20;;;;;;;26.26;62.51;100580.13;1723506;83;21047;-65
2022/08/12 11:17:12;;;;;;;15.20;11.45;;;;;;;26.26;62.57;100587.72;1710645;82;21497;-65
2022/08/12 11:19:44;;;;;;;14.90;11.53;;;;;;;26.21;62.66;100576.81;1702104;84;21045;-68
2022/08/12 11:22:13;;;;;;;18.95;11.03;;;;;;;26.16;62.72;100567.03;1700943;84;21115;-67
2022/08/12 11:24:46;;;;;;;13.53;10.75;;;;;;;26.11;63.16;100568.50;1698376;84;21099;-66
2022/08/12 11:27:18;;;;;;;23.22;13.60;;;;;;;26.10;63.33;100554.75;1699516;83;21052;-65
2022/08/12 11:29:50;;;;;;;14.38;10.80;;;;;;;26.09;63.36;100552.51;1705586;83;21047;-66
2022/08/12 11:32:21;;;;;;;14.75;11.12;;;;;;;26.09;63.45;100551.10;1690652;84;21040;-65
2022/08/12 11:34:51;;;;;;;16.80;11.22;;;;;;;26.09;63.25;100553.91;1696764;84;20997;-67
2022/08/12 11:37:23;;;;;;;13.95;11.03;;;;;;;26.07;62.99;100563.20;1700643;84;21079;-64
2022/08/12 11:39:54;;;;;;;12.95;10.65;;;;;;;26.04;63.02;100560.98;1660013;84;21086;-66
2022/08/12 11:42:31;;;;;;;13.43;10.45;;;;;;;26.04;63.09;100559.58;1699774;84;21021;-65
2022/08/12 11:45:03;;;;;;;13.90;11.18;;;;;;;26.03;63.14;100577.56;1703141;84;21116;-63
2022/08/12 11:47:33;;;;;;;13.50;10.65;;;;;;;26.00;63.05;100564.09;1696893;84;21072;-65
2022/08/12 11:50:06;;;;;;;16.15;11.00;;;;;;;25.97;62.82;100571.70;1697373;84;21048;-65
2022/08/12 11:52:35;;;;;;;15.70;11.03;;;;;;;25.91;62.84;100576.53;1691905;84;21107;-66
2022/08/12 11:55:08;;;;;;;14.25;11.18;;;;;;;25.89;62.98;100570.94;1694952;84;21036;-67
2022/08/12 11:57:51;;;;;;;15.48;11.15;;;;;;;25.91;63.22;100568.67;1697139;84;21084;-65
2022/08/12 12:00:22;;;;;;;17.05;11.80;;;;;;;25.93;63.21;100569.78;1700305;84;21041;-65
2022/08/12 12:02:53;;;;;;;16.12;11.85;;;;;;;25.94;63.34;100577.07;1702258;84;21060;-65
2022/08/12 12:05:23;;;;;;;15.78;11.33;;;;;;;25.93;63.00;100580.45;1697062;84;21079;-66
2022/08/12 12:07:55;;;;;;;19.35;11.70;;;;;;;25.91;63.10;100584.11;1696994;84;20985;-66
2022/08/12 12:10:27;;;;;;;15.93;11.85;;;;;;;25.86;62.93;100579.95;1697300;84;21475;-65
2022/08/12 12:12:56;;;;;;;14.73;12.00;;;;;;;25.81;62.91;100576.63;1696770;83;21056;-65
2022/08/12 12:15:27;;;;;;;13.15;10.68;;;;;;;25.78;63.14;100586.20;1691860;84;21107;-65
2022/08/12 12:17:59;;;;;;;14.78;11.05;;;;;;;25.76;63.37;100581.45;1695577;84;21088;-66
2022/08/12 12:20:30;;;;;;;16.40;11.20;;;;;;;25.75;63.62;100582.58;1712312;83;21097;-66
2022/08/12 12:22:59;;;;;;;13.40;11.65;;;;;;;25.76;63.86;100580.88;1778990;80;21042;-65
2022/08/12 12:25:29;;;;;;;14.80;10.90;;;;;;;25.78;63.85;100581.99;1779025;79;21473;-65
2022/08/12 12:28:02;;;;;;;18.37;12.55;;;;;;;25.78;63.61;100583.39;1774388;80;20975;-64
2022/08/12 12:30:35;;;;;;;16.95;11.95;;;;;;;25.78;63.74;100580.59;1775091;80;21552;-65
2022/08/12 12:33:06;;;;;;;15.78;11.45;;;;;;;25.80;63.60;100579.16;1779089;80;20974;-66
2022/08/12 12:35:37;;;;;;;11.43;9.88;;;;;;;25.81;63.57;100572.98;1778944;80;21101;-65
2022/08/12 12:38:10;;;;;;;14.18;10.95;;;;;;;25.85;63.65;100574.06;1775313;80;21117;-64
2022/08/12 12:40:43;;;;;;;14.13;10.63;;;;;;;25.88;63.46;100578.52;1778980;80;21085;-64
2022/08/12 12:43:12;;;;;;;15.72;11.00;;;;;;;25.91;63.38;100573.72;1779025;80;21022;-64
2022/08/12 12:45:43;;;;;;;15.68;11.33;;;;;;;25.94;63.29;100569.48;1778890;80;21081;-64
2022/08/12 12:48:16;;;;;;;13.20;10.90;;;;;;;25.97;63.29;100571.70;1777445;80;20963;-64
2022/08/12 12:53:46;;;;;;;13.32;10.82;;;;;;;26.06;62.89;100569.95;1779071;80;21014;-68
2022/08/12 12:56:24;;;;;;;13.88;10.72;;;;;;;26.09;63.02;100560.09;1779030;80;21461;-66
2022/08/12 12:58:52;;;;;;;13.30;10.43;;;;;;;26.14;63.09;100555.83;1776705;80;20971;-66
2022/08/12 13:01:25;;;;;;;13.48;10.68;;;;;;;26.21;62.87;100559.12;1778990;79;21476;-64
2022/08/12 13:03:57;;;;;;;13.72;10.20;;;;;;;26.26;62.86;100562.44;1778467;80;21435;-65
2022/08/12 13:06:28;;;;;;;13.75;10.72;;;;;;;26.27;62.77;100552.31;1778894;80;21030;-65
2022/08/12 13:09:00;;;;;;;17.23;10.90;;;;;;;26.28;62.56;100559.60;1763028;80;21042;-66
2022/08/12 13:11:32;;;;;;;17.35;10.90;;;;;;;26.28;62.71;100561.00;1779055;80;21006;-65
2022/08/12 13:14:03;;;;;;;13.13;11.18;;;;;;;26.30;62.61;100557.90;1779012;80;21070;-65
2022/08/12 13:16:39;;;;;;;12.85;10.53;;;;;;;26.33;62.47;100560.98;1779074;80;21096;-66
2022/08/12 13:19:10;;;;;;;15.83;10.93;;;;;;;26.39;62.35;100568.78;1755493;81;21043;-65
2022/08/12 13:22:15;;;;;;;10.60;9.43;;;;;;;26.46;62.29;100563.64;1765876;81;21023;-65
2022/08/12 13:24:12;;;;;;;14.15;10.43;;;;;;;26.55;61.98;100571.67;1766374;80;21074;-66
2022/08/12 13:26:44;;;;;;;14.47;10.53;;;;;;;26.60;61.32;100560.94;1765902;81;21066;-65
2022/08/12 13:29:13;;;;;;;13.80;10.72;;;;;;;26.63;61.39;100557.52;1752504;81;20999;-66
2022/08/12 13:31:43;;;;;;;13.15;10.85;;;;;;;26.68;60.75;100557.48;1765784;81;20975;-66
2022/08/12 13:34:14;;;;;;;15.05;10.72;;;;;;;26.70;60.74;100554.64;1749912;81;20995;-67
2022/08/12 13:36:46;;;;;;;15.05;10.78;;;;;;;26.73;60.58;100553.20;1765609;81;21977;-65
2022/08/12 13:39:15;;;;;;;19.50;12.10;;;;;;;26.77;60.73;100557.08;1751994;81;20971;-69
2022/08/12 13:41:44;;;;;;;15.43;11.50;;;;;;;26.80;60.92;100555.91;1765941;81;21047;-66